map of TTN home
TTN - Airport
Location
City:  Trenton, New Jersey, United States
Name:Trenton Mercer Airport
ICAO:KTTN
IATA:TTN
FAA LID:TTN

Details
Type:Airport (Part 139 Class I)
Use:Public/Civil
Latitude:4016'36"N (40.276694)
Longitude:7448'48"W (-74.813471)
Datum:WGS 1984
Elevation:212 ft (65 m)
Variation:12.26W (WMM2015v2 magnetic declination)
0.04 annual change
Runways:2
Longest:6006 × 150 ft (1831 × 45.5 m), paved

Time
Time Zone:UTC-5 (DST-4)
Local Time:

Weather
METAR:KTTN 041353Z 00000KT 5SM BR CLR 00/M01 A3010 RMK AO2 SLP189 T00001011
TAF:KTTN 041120Z 0412/0512 VRB03KT 5SM BR SCT250
FM041400 VRB03KT P6SM SCT250
FM050300 VRB03KT 6SM BR BKN200
FM050900 VRB03KT 4SM BR OVC100

Related Locations
Nearby:
Farthest:YAUG: 11753 mi / 18915 km
Augusta [Augusta Airport], WA, AU

Find:

   beyond  
but within

Other Information
Maps:
NOTAMs:
Links:
Sources:

  
  • flag of United States
  • flag of New Jersey
  

Airport Diagram

Airport diagram for TTN

Airport diagram PDF from FAA

Sectional Chart

Flight Planning
at skyvector.com

Satellite Image

Google Maps Satellite view

 

Copyright © 2004-2019 Karl L. Swartz. All rights reserved.
The Great Circle Mapper name and logo are trademarks of the Great Circle Mapper.
All other trademarks mentioned herein belong to their respective owners.
Please see credits for attibutions and further copyright information.

  Follow gcmap on Facebook Follow gcmap on Twitter GCmap on LinkedIn

hCard Microformat

Geo Microformat